Time;durP1;ratioP1;P1;durP2;ratioP2;P2;SDS_P1;SDS_P2;PMS_P1;PMS_P2;Temp;Humidity;BMP_temperature;BMP_pressure;BME280_temperature;BME280_humidity;BME280_pressure;Samples;Min_cycle;Max_cycle;Signal;HPM_P1;HPM_P2
2024/01/24 20:30:21;;;;;;;15.30;2.10;;;;;;;7.92;79.97;100024.10;104905;1300;543619;-78
2024/01/24 20:33:12;;;;;;;18.70;2.00;;;;;;;7.83;79.96;100018.10;107168;1278;22543;-75
2024/01/24 20:36:06;;;;;;;16.00;2.30;;;;;;;7.77;80.01;100009.95;107497;1274;25287;-78
2024/01/24 20:38:58;;;;;;;10.10;1.90;;;;;;;7.71;80.14;100007.67;107574;1271;22524;-77
2024/01/24 20:41:49;;;;;;;16.90;3.10;;;;;;;7.66;80.11;100012.12;107552;1271;24404;-77
2024/01/24 20:44:40;;;;;;;17.40;1.70;;;;;;;7.59;80.08;100016.88;107521;1272;122926;-82
2024/01/24 20:47:31;;;;;;;16.50;1.60;;;;;;;7.53;80.15;100019.77;107684;1272;23076;-77
2024/01/24 20:50:22;;;;;;;18.00;1.70;;;;;;;7.47;80.25;100021.61;107722;1264;25318;-77
2024/01/24 20:53:17;;;;;;;12.70;1.80;;;;;;;7.43;80.25;100019.52;107751;1264;22656;-78
2024/01/24 20:56:10;;;;;;;13.00;1.30;;;;;;;7.40;80.36;100025.65;107966;1268;23129;-77
2024/01/24 20:59:01;;;;;;;10.70;1.10;;;;;;;7.40;80.35;100027.11;108010;1260;22570;-77
2024/01/24 21:01:52;;;;;;;10.00;1.30;;;;;;;7.40;80.26;100020.41;108045;1268;25339;-77
2024/01/24 21:04:43;;;;;;;13.40;1.50;;;;;;;7.39;80.51;100022.04;107865;1268;25479;-77
2024/01/24 21:07:34;;;;;;;10.50;1.00;;;;;;;7.36;80.56;100020.66;107981;1262;22609;-80
2024/01/24 21:10:26;;;;;;;14.30;2.10;;;;;;;7.34;80.67;100022.48;108018;1264;22708;-80
2024/01/24 21:13:17;;;;;;;8.80;1.00;;;;;;;7.31;80.85;100022.29;108091;1257;25324;-77
2024/01/24 21:16:10;;;;;;;15.50;1.90;;;;;;;7.29;80.94;100020.00;108121;1265;22603;-78
2024/01/24 21:19:02;;;;;;;13.70;2.70;;;;;;;7.27;80.99;100025.86;108111;1268;25227;-77
2024/01/24 21:21:53;;;;;;;10.60;1.40;;;;;;;7.24;81.14;100024.70;107963;1265;25451;-77
2024/01/24 21:24:44;;;;;;;12.30;1.20;;;;;;;7.22;81.33;100022.23;108274;1261;22791;-77
2024/01/24 21:27:35;;;;;;;12.60;1.40;;;;;;;7.22;81.36;100033.48;108267;1264;22741;-77
2024/01/24 21:30:27;;;;;;;10.90;1.70;;;;;;;7.23;81.34;100031.60;108225;1245;25265;-77
2024/01/24 21:33:18;;;;;;;15.00;1.40;;;;;;;7.27;81.41;100040.64;108267;1268;24261;-81
2024/01/24 21:36:10;;;;;;;13.60;1.50;;;;;;;7.30;80.95;100042.00;108215;1266;24184;-77
2024/01/24 21:39:01;;;;;;;12.20;1.20;;;;;;;7.34;80.83;100050.55;108349;1264;23806;-77
2024/01/24 21:41:52;;;;;;;9.70;1.20;;;;;;;7.39;80.53;100053.49;108282;1267;22542;-78
2024/01/24 21:44:44;;;;;;;11.90;1.50;;;;;;;7.43;80.30;100055.84;108309;1261;24157;-79
2024/01/24 21:47:35;;;;;;;15.30;1.60;;;;;;;7.47;79.94;100048.13;108328;1264;22658;-78
2024/01/24 21:50:27;;;;;;;18.00;1.50;;;;;;;7.49;79.90;100053.52;108044;1261;22555;-78
2024/01/24 21:53:19;;;;;;;12.20;1.20;;;;;;;7.49;79.91;100061.50;108399;1260;24352;-78
2024/01/24 21:56:11;;;;;;;12.50;1.80;;;;;;;7.50;79.94;100063.31;108393;1256;22627;-77
2024/01/24 21:59:03;;;;;;;10.00;1.20;;;;;;;7.50;79.85;100060.77;108043;1267;23061;-78
2024/01/24 22:01:54;;;;;;;17.60;1.50;;;;;;;7.48;79.35;100068.71;108291;1268;22584;-78
2024/01/24 22:04:45;;;;;;;14.50;2.10;;;;;;;7.48;79.22;100062.45;108305;1267;22584;-78
2024/01/24 22:07:36;;;;;;;17.00;1.70;;;;;;;7.48;79.01;100056.73;108138;1269;24287;-79
2024/01/24 22:10:27;;;;;;;9.20;1.50;;;;;;;7.47;78.77;100065.35;108269;1264;24245;-78
2024/01/24 22:13:17;;;;;;;14.40;2.00;;;;;;;7.48;78.65;100067.90;108319;1260;22575;-78
2024/01/24 22:16:08;;;;;;;10.40;1.30;;;;;;;7.50;78.65;100059.60;108279;1264;22641;-77
2024/01/24 22:18:59;;;;;;;10.80;1.30;;;;;;;7.51;78.55;100062.38;108192;1268;23030;-78
2024/01/24 22:21:51;;;;;;;10.90;1.00;;;;;;;7.51;78.42;100054.35;108255;1268;22550;-78
2024/01/24 22:24:42;;;;;;;19.40;1.60;;;;;;;7.51;77.95;100058.59;108288;1260;22658;-78
2024/01/24 22:27:33;;;;;;;17.40;1.90;;;;;;;7.52;77.66;100053.70;108237;1259;24241;-77
2024/01/24 22:30:24;;;;;;;11.50;1.20;;;;;;;7.53;76.78;100053.00;108249;1267;23333;-77
2024/01/24 22:33:15;;;;;;;17.10;1.30;;;;;;;7.59;76.49;100062.55;108115;1263;22613;-78
2024/01/24 22:36:08;;;;;;;13.70;1.00;;;;;;;7.59;76.48;100061.80;108227;1259;23930;-79
2024/01/24 22:38:58;;;;;;;14.00;1.10;;;;;;;7.58;76.47;100070.96;111353;1267;22209;-78
2024/01/24 22:41:49;;;;;;;22.90;2.30;;;;;;;7.57;76.90;100072.69;111438;1265;22147;-78
2024/01/24 22:44:41;;;;;;;16.90;1.80;;;;;;;7.56;76.81;100075.44;111435;1261;22282;-76
2024/01/24 22:47:32;;;;;;;9.50;1.30;;;;;;;7.54;77.67;100068.55;111397;1261;22849;-76
2024/01/24 22:50:22;;;;;;;14.80;1.00;;;;;;;7.48;77.90;100067.35;111453;1260;22174;-76
2024/01/24 22:53:13;;;;;;;12.20;1.10;;;;;;;7.43;77.92;100059.77;109619;1261;22634;-80
2024/01/24 22:56:04;;;;;;;9.50;1.40;;;;;;;7.38;77.91;100056.45;108304;1267;25327;-79
2024/01/24 22:58:55;;;;;;;14.70;1.30;;;;;;;7.34;77.80;100060.48;108233;1264;23035;-79
2024/01/24 23:01:47;;;;;;;17.30;1.40;;;;;;;7.30;77.80;100059.06;108081;1267;24229;-77
2024/01/24 23:04:38;;;;;;;11.10;1.50;;;;;;;7.25;77.80;100060.79;108075;1268;22534;-77
2024/01/24 23:07:29;;;;;;;12.90;1.40;;;;;;;7.20;77.98;100066.23;108538;1261;25459;-77
2024/01/24 23:10:20;;;;;;;10.30;1.20;;;;;;;7.16;78.15;100066.79;108259;1267;22553;-79
2024/01/24 23:13:10;;;;;;;14.00;1.50;;;;;;;7.14;78.24;100069.44;108374;1262;22768;-78
2024/01/24 23:16:01;;;;;;;14.10;1.00;;;;;;;7.11;78.41;100068.44;108472;1265;22682;-79
2024/01/24 23:18:54;;;;;;;14.30;1.00;;;;;;;7.07;78.53;100066.70;108359;1263;22588;-79
2024/01/24 23:21:45;;;;;;;9.10;0.80;;;;;;;7.06;78.69;100067.38;108351;1265;24457;-80
2024/01/24 23:24:36;;;;;;;14.10;1.50;;;;;;;7.03;78.70;100065.52;108494;1267;22546;-77
2024/01/24 23:27:27;;;;;;;14.60;1.20;;;;;;;7.00;78.88;100068.67;108382;1263;22606;-78
2024/01/24 23:30:18;;;;;;;10.70;1.10;;;;;;;6.98;78.89;100079.09;108435;1265;24316;-78
2024/01/24 23:33:10;;;;;;;12.70;1.40;;;;;;;6.95;79.09;100078.48;108232;1267;22525;-78
2024/01/24 23:36:02;;;;;;;12.40;1.10;;;;;;;6.93;79.25;100083.56;108309;1267;25331;-78
2024/01/24 23:38:53;;;;;;;6.40;1.00;;;;;;;6.91;79.24;100087.52;108285;1265;22574;-78
2024/01/24 23:41:44;;;;;;;11.80;1.10;;;;;;;6.89;79.32;100085.98;108222;1267;25336;-78
2024/01/24 23:44:38;;;;;;;17.20;1.30;;;;;;;6.89;79.40;100092.44;108435;1267;22674;-77
2024/01/24 23:47:29;;;;;;;13.40;1.30;;;;;;;6.88;79.51;100091.75;108395;1263;22643;-83
2024/01/24 23:50:20;;;;;;;13.60;1.10;;;;;;;6.87;79.50;100092.67;108321;1267;23441;-81
2024/01/24 23:53:12;;;;;;;9.20;1.30;;;;;;;6.87;79.52;100102.20;108377;1260;23663;-80
2024/01/24 23:56:02;;;;;;;15.10;2.00;;;;;;;6.87;79.59;100101.70;108326;1267;22539;-81
2024/01/24 23:58:54;;;;;;;11.80;1.00;;;;;;;6.88;79.56;100100.55;108288;1267;24338;-77
